createdAt,value
2019-03-13T00:02:27.438Z,90.00
2019-03-13T00:04:59.777Z,91.30
2019-03-13T00:07:32.638Z,90.80
2019-03-13T00:10:05.858Z,90.60
2019-03-13T00:12:38.152Z,90.70
2019-03-13T00:15:10.692Z,91.10
2019-03-13T00:17:42.972Z,90.80
2019-03-13T00:20:15.228Z,90.90
2019-03-13T00:22:47.517Z,91.70
2019-03-13T00:25:20.017Z,91.40
2019-03-13T00:27:52.333Z,91.10
2019-03-13T00:30:24.803Z,89.30
2019-03-13T00:32:56.965Z,90.80
2019-03-13T00:35:29.237Z,89.00
2019-03-13T00:38:01.794Z,90.00
2019-03-13T00:40:34.124Z,90.40
2019-03-13T00:43:06.515Z,89.80
2019-03-13T00:45:38.721Z,89.70
2019-03-13T00:48:10.822Z,89.90
2019-03-13T00:50:43.465Z,88.50
2019-03-13T00:53:15.823Z,88.80
2019-03-13T00:55:48.065Z,86.60
2019-03-13T00:58:20.291Z,85.30
2019-03-13T01:01:15.101Z,87.50
2019-03-13T01:04:21.811Z,85.90
2019-03-13T01:07:12.104Z,86.20
2019-03-13T01:09:44.804Z,85.40
2019-03-13T01:12:17.008Z,85.70
2019-03-13T01:14:49.117Z,86.40
2019-03-13T01:17:21.302Z,86.60
2019-03-13T01:19:53.612Z,87.80
2019-03-13T01:22:25.991Z,86.10
2019-03-13T01:24:58.316Z,85.30
2019-03-13T01:27:30.709Z,85.90
2019-03-13T01:30:03.762Z,88.80
2019-03-13T01:32:46.599Z,89.30
2019-03-13T01:35:25.380Z,89.30
2019-03-13T01:37:57.576Z,91.80
2019-03-13T01:40:29.822Z,93.40
2019-03-13T01:43:02.100Z,95.60
2019-03-13T01:45:34.430Z,99.90
2019-03-13T01:48:06.612Z,99.90
2019-03-13T01:50:39.045Z,99.90
2019-03-13T01:53:11.332Z,99.90
2019-03-13T01:55:43.686Z,99.90
2019-03-13T01:58:16.002Z,99.90
2019-03-13T02:00:48.673Z,99.90
2019-03-13T02:03:20.957Z,99.90
2019-03-13T02:05:53.295Z,99.90
2019-03-13T02:08:25.773Z,99.90
2019-03-13T02:13:30.600Z,99.90
2019-03-13T02:16:03.012Z,99.90
2019-03-13T02:18:35.454Z,99.90
2019-03-13T02:21:07.682Z,99.90
2019-03-13T02:23:40.004Z,99.90
2019-03-13T02:26:12.213Z,99.90
2019-03-13T02:28:44.558Z,99.90
2019-03-13T02:31:16.945Z,99.90
2019-03-13T02:33:49.290Z,99.90
2019-03-13T02:36:21.961Z,99.90
2019-03-13T02:38:54.092Z,99.90
2019-03-13T02:41:26.716Z,99.90
2019-03-13T02:43:59.211Z,99.90
2019-03-13T02:46:31.447Z,99.90
2019-03-13T02:49:04.153Z,99.90
2019-03-13T02:51:36.300Z,99.90
2019-03-13T02:54:08.477Z,99.90
2019-03-13T02:56:41.352Z,99.90
2019-03-13T02:59:13.631Z,99.90
2019-03-13T03:01:59.652Z,99.90
2019-03-13T03:04:31.856Z,99.90
2019-03-13T03:07:03.982Z,99.90
2019-03-13T03:09:36.101Z,99.90
2019-03-13T03:12:08.330Z,99.90
2019-03-13T03:15:00.565Z,99.90
2019-03-13T03:17:32.755Z,99.90
2019-03-13T03:20:07.841Z,99.90
2019-03-13T03:22:40.290Z,99.90
2019-03-13T03:25:13.201Z,99.90
2019-03-13T03:27:45.542Z,99.90
2019-03-13T03:30:19.673Z,99.90
2019-03-13T03:32:52.055Z,99.90
2019-03-13T03:35:24.375Z,99.90
2019-03-13T03:37:56.882Z,99.90
2019-03-13T03:40:29.173Z,99.90
2019-03-13T03:43:01.401Z,99.90
2019-03-13T03:45:33.585Z,99.90
2019-03-13T03:48:05.926Z,99.90
2019-03-13T03:50:38.001Z,99.90
2019-03-13T03:53:10.214Z,99.90
2019-03-13T03:55:42.516Z,99.90
2019-03-13T03:58:14.734Z,99.90
2019-03-13T04:00:47.153Z,99.90
2019-03-13T04:03:19.352Z,99.90
2019-03-13T04:05:51.675Z,99.90
2019-03-13T04:08:24.109Z,99.90
2019-03-13T04:10:56.372Z,99.90
2019-03-13T04:13:28.740Z,99.90
2019-03-13T04:16:00.926Z,99.90
2019-03-13T04:18:33.292Z,99.90
2019-03-13T04:21:05.645Z,99.90
2019-03-13T04:23:38.104Z,99.90
2019-03-13T04:26:12.738Z,99.90
2019-03-13T04:28:44.545Z,99.90
2019-03-13T04:31:17.036Z,99.90
2019-03-13T04:33:49.254Z,99.90
2019-03-13T04:36:21.567Z,99.90
2019-03-13T04:38:53.685Z,99.90
2019-03-13T04:41:25.847Z,99.90
2019-03-13T04:43:58.183Z,99.90
2019-03-13T04:46:30.921Z,99.90
2019-03-13T04:49:03.502Z,99.90
2019-03-13T04:51:35.874Z,99.90
2019-03-13T04:54:08.168Z,99.90
2019-03-13T04:56:40.392Z,99.90
2019-03-13T04:59:12.535Z,99.90
2019-03-13T05:01:44.760Z,99.90
2019-03-13T05:04:17.090Z,99.90
2019-03-13T05:06:49.471Z,99.90
2019-03-13T05:09:33.764Z,99.90
2019-03-13T05:12:06.500Z,99.90
2019-03-13T05:14:38.798Z,99.90
2019-03-13T05:17:11.136Z,99.90
2019-03-13T05:19:43.367Z,99.90
2019-03-13T05:22:15.877Z,99.90
2019-03-13T05:24:47.987Z,99.90
2019-03-13T05:27:20.356Z,99.90
2019-03-13T05:29:52.776Z,99.90
2019-03-13T05:32:25.126Z,99.90
2019-03-13T05:34:57.682Z,99.90
2019-03-13T05:37:30.461Z,99.90
2019-03-13T05:40:02.935Z,99.90
2019-03-13T05:42:35.444Z,99.90
2019-03-13T05:45:08.508Z,99.90
2019-03-13T05:47:40.832Z,99.90
2019-03-13T05:50:13.197Z,99.90
2019-03-13T05:52:45.384Z,99.90
2019-03-13T05:55:18.073Z,99.90
2019-03-13T05:57:50.293Z,99.90
2019-03-13T06:00:24.479Z,99.90
2019-03-13T06:02:56.772Z,99.90
2019-03-13T06:05:29.560Z,99.90
2019-03-13T06:08:02.040Z,99.90
2019-03-13T06:10:34.881Z,99.90
2019-03-13T06:13:07.286Z,99.90
2019-03-13T06:15:39.438Z,99.90
2019-03-13T06:18:11.620Z,99.90
2019-03-13T06:20:43.818Z,99.90
2019-03-13T06:23:16.175Z,99.90
2019-03-13T06:25:48.636Z,99.90
2019-03-13T06:28:20.712Z,99.90
2019-03-13T06:30:52.981Z,99.90
2019-03-13T06:33:25.241Z,99.90
2019-03-13T06:35:57.826Z,99.90
2019-03-13T06:38:30.177Z,99.90
2019-03-13T06:41:05.143Z,99.90
2019-03-13T06:43:36.586Z,99.90
2019-03-13T06:46:08.937Z,99.90
2019-03-13T06:48:41.476Z,99.90
2019-03-13T06:51:13.954Z,99.90
2019-03-13T06:53:46.192Z,99.90
2019-03-13T06:56:18.633Z,99.90
2019-03-13T06:59:02.951Z,99.90
2019-03-13T07:02:07.164Z,99.90
2019-03-13T07:04:59.450Z,99.90
2019-03-13T07:07:50.971Z,99.90
2019-03-13T07:10:43.927Z,99.90
2019-03-13T07:13:41.582Z,99.90
2019-03-13T07:16:31.988Z,99.90
2019-03-13T07:19:27.872Z,99.90
2019-03-13T07:22:15.738Z,99.90
2019-03-13T07:25:19.628Z,99.90
2019-03-13T07:28:01.627Z,99.90
2019-03-13T07:30:47.846Z,99.90
2019-03-13T07:33:44.418Z,99.90
2019-03-13T07:36:45.031Z,99.90
2019-03-13T07:39:35.290Z,99.90
2019-03-13T07:42:17.390Z,99.90
2019-03-13T07:45:24.662Z,99.90
2019-03-13T07:48:28.602Z,99.90
2019-03-13T07:51:23.902Z,99.90
2019-03-13T07:54:18.977Z,99.90
2019-03-13T07:57:01.188Z,99.90
2019-03-13T07:59:41.721Z,99.90
2019-03-13T08:02:25.005Z,99.90
2019-03-13T08:05:05.827Z,99.90
2019-03-13T08:07:53.476Z,99.90
2019-03-13T08:10:45.276Z,99.90
2019-03-13T08:13:43.996Z,99.90
2019-03-13T08:16:28.954Z,99.90
2019-03-13T08:19:09.362Z,99.90
2019-03-13T08:21:53.595Z,99.90
2019-03-13T08:24:34.946Z,99.90
2019-03-13T08:27:17.066Z,99.90
2019-03-13T08:30:08.099Z,99.90
2019-03-13T08:32:59.973Z,99.90
2019-03-13T08:35:46.171Z,99.90
2019-03-13T08:38:23.741Z,99.90
2019-03-13T08:41:06.264Z,99.80
2019-03-13T08:44:06.967Z,99.60
2019-03-13T08:47:16.947Z,99.80
2019-03-13T08:50:01.712Z,99.40
2019-03-13T08:52:53.714Z,99.20
2019-03-13T08:55:54.661Z,99.20
2019-03-13T08:58:52.425Z,98.80
2019-03-13T09:01:44.424Z,98.90
2019-03-13T09:04:23.380Z,98.00
2019-03-13T09:07:04.823Z,97.90
2019-03-13T09:09:48.004Z,98.00
2019-03-13T09:12:45.970Z,98.20
2019-03-13T09:15:38.114Z,97.40
2019-03-13T09:18:39.039Z,97.80
2019-03-13T09:21:28.996Z,97.20
2019-03-13T09:24:19.257Z,97.70
2019-03-13T09:27:11.123Z,97.60
2019-03-13T09:30:06.960Z,96.90
2019-03-13T09:32:47.450Z,97.10
2019-03-13T09:35:38.023Z,96.20
2019-03-13T09:38:32.844Z,96.90
2019-03-13T09:41:17.387Z,96.80
2019-03-13T09:44:08.004Z,97.00
2019-03-13T09:46:58.986Z,96.90
2019-03-13T09:49:51.100Z,96.70
2019-03-13T09:52:51.166Z,97.00
2019-03-13T09:55:45.717Z,96.90
2019-03-13T09:58:28.894Z,97.00
2019-03-13T10:01:20.758Z,96.50
2019-03-13T10:04:15.380Z,96.80
2019-03-13T10:07:05.801Z,96.60
2019-03-13T10:09:49.190Z,96.70
2019-03-13T10:12:30.273Z,96.30
2019-03-13T10:15:11.875Z,96.40
2019-03-13T10:17:59.491Z,96.60
2019-03-13T10:20:43.672Z,95.90
2019-03-13T10:23:41.544Z,95.50
2019-03-13T10:26:39.998Z,95.60
2019-03-13T10:29:43.668Z,95.00
2019-03-13T10:32:35.524Z,95.20
2019-03-13T10:35:42.609Z,95.10
2019-03-13T10:38:22.020Z,94.90
2019-03-13T10:41:12.049Z,98.50
2019-03-13T10:46:57.296Z,93.00
2019-03-13T10:49:34.076Z,93.70
2019-03-13T10:52:37.962Z,92.80
2019-03-13T10:55:28.243Z,92.30
2019-03-13T10:58:22.174Z,91.80
2019-03-13T11:01:05.840Z,92.00
2019-03-13T11:03:45.969Z,91.60
2019-03-13T11:06:54.031Z,92.60
2019-03-13T11:09:38.469Z,92.20
2019-03-13T11:12:20.699Z,91.80
2019-03-13T11:15:21.412Z,91.50
2019-03-13T11:18:13.684Z,91.10
2019-03-13T11:20:58.392Z,91.00
2019-03-13T11:23:56.317Z,90.90
2019-03-13T11:26:49.139Z,91.20
2019-03-13T11:29:32.713Z,91.20
2019-03-13T11:32:13.853Z,91.50
2019-03-13T11:35:17.799Z,90.80
2019-03-13T11:38:18.148Z,90.90
2019-03-13T11:41:14.874Z,90.70
2019-03-13T11:44:03.737Z,91.10
2019-03-13T11:46:55.800Z,91.40
2019-03-13T11:49:47.819Z,91.20
2019-03-13T11:52:38.768Z,91.20
2019-03-13T11:55:29.001Z,91.00
2019-03-13T11:58:15.473Z,91.00
2019-03-13T12:01:07.533Z,90.70
2019-03-13T12:04:03.112Z,91.50
2019-03-13T12:06:53.327Z,91.90
2019-03-13T12:09:30.777Z,91.70
2019-03-13T12:12:17.005Z,92.00
2019-03-13T12:15:23.656Z,92.30
2019-03-13T12:18:03.961Z,92.70
2019-03-13T12:20:54.466Z,92.40
2019-03-13T12:23:50.013Z,91.80
2019-03-13T12:26:47.842Z,93.00
2019-03-13T12:29:38.124Z,91.80
2019-03-13T12:32:28.657Z,91.90
2019-03-13T12:35:10.809Z,92.60
2019-03-13T12:38:05.986Z,92.00
2019-03-13T12:40:56.537Z,92.00
2019-03-13T12:43:51.281Z,92.70
2019-03-13T12:46:51.223Z,93.30
2019-03-13T12:49:42.970Z,93.60
2019-03-13T12:52:25.328Z,93.40
2019-03-13T12:55:07.885Z,93.50
2019-03-13T12:57:52.425Z,93.80
2019-03-13T13:00:32.969Z,94.10
2019-03-13T13:03:23.519Z,94.00
2019-03-13T13:06:05.210Z,94.10
2019-03-13T13:09:14.828Z,94.30
2019-03-13T13:11:54.218Z,94.30
2019-03-13T13:14:44.867Z,94.00
2019-03-13T13:17:27.053Z,94.20
2019-03-13T13:19:59.382Z,94.30
2019-03-13T13:22:31.418Z,94.40
2019-03-13T13:25:05.269Z,94.30
2019-03-13T13:27:38.784Z,94.40
2019-03-13T13:30:12.103Z,93.90
2019-03-13T13:32:44.489Z,94.10
2019-03-13T13:35:16.892Z,94.30
2019-03-13T13:37:49.238Z,94.60
2019-03-13T13:40:21.563Z,94.70
2019-03-13T13:42:54.464Z,94.30
2019-03-13T13:45:44.073Z,94.30
2019-03-13T13:48:16.332Z,94.40
2019-03-13T13:50:48.877Z,94.40
2019-03-13T13:53:21.404Z,94.30
2019-03-13T13:55:54.142Z,94.30
2019-03-13T13:58:28.518Z,94.60
2019-03-13T14:01:00.397Z,94.40
2019-03-13T14:03:32.752Z,94.40
2019-03-13T14:06:05.055Z,94.40
2019-03-13T14:08:37.666Z,94.30
2019-03-13T14:11:09.942Z,94.50
2019-03-13T14:13:42.270Z,94.90
2019-03-13T14:16:14.497Z,94.40
2019-03-13T14:18:49.893Z,94.60
2019-03-13T14:21:22.457Z,94.70
2019-03-13T14:23:54.779Z,94.80
2019-03-13T14:26:27.440Z,94.50
2019-03-13T14:28:59.889Z,94.40
2019-03-13T14:31:32.419Z,94.60
2019-03-13T14:34:04.770Z,94.70
2019-03-13T14:36:37.128Z,94.90
2019-03-13T14:39:09.238Z,94.80
2019-03-13T14:41:41.636Z,94.40
2019-03-13T14:44:14.280Z,94.30
2019-03-13T14:46:46.573Z,94.60
2019-03-13T14:49:19.131Z,94.40
2019-03-13T14:51:51.512Z,94.60
2019-03-13T14:54:24.248Z,94.80
2019-03-13T14:56:56.413Z,94.00
2019-03-13T14:59:28.938Z,94.90
2019-03-13T15:02:01.577Z,95.00
2019-03-13T15:04:33.698Z,94.90
2019-03-13T15:07:06.301Z,94.90
2019-03-13T15:09:39.439Z,94.40
2019-03-13T15:12:11.834Z,94.70
2019-03-13T15:14:44.053Z,95.20
2019-03-13T15:17:16.792Z,95.10
2019-03-13T15:19:49.130Z,94.80
2019-03-13T15:22:21.349Z,95.20
2019-03-13T15:24:53.928Z,95.50
2019-03-13T15:27:26.206Z,95.00
2019-03-13T15:29:58.353Z,95.10
2019-03-13T15:32:30.485Z,95.40
2019-03-13T15:35:02.999Z,95.00
2019-03-13T15:37:35.243Z,95.30
2019-03-13T15:40:09.633Z,95.50
2019-03-13T15:42:42.243Z,95.20
2019-03-13T15:45:15.985Z,95.10
2019-03-13T15:47:48.626Z,95.20
2019-03-13T15:50:20.949Z,95.40
2019-03-13T15:52:53.301Z,95.40
2019-03-13T15:55:25.694Z,95.40
2019-03-13T15:57:58.253Z,95.50
2019-03-13T16:00:30.970Z,95.30
2019-03-13T16:03:03.431Z,95.50
2019-03-13T16:05:35.582Z,95.40
2019-03-13T16:08:08.112Z,95.40
2019-03-13T16:10:40.709Z,95.70
2019-03-13T16:13:13.374Z,95.40
2019-03-13T16:15:46.325Z,95.40
2019-03-13T16:18:18.621Z,95.20
2019-03-13T16:20:51.040Z,95.40
2019-03-13T16:23:23.413Z,95.30
2019-03-13T16:25:55.589Z,95.60
2019-03-13T16:28:28.111Z,95.60
2019-03-13T16:31:00.767Z,95.50
2019-03-13T16:33:32.928Z,95.50
2019-03-13T16:36:05.664Z,95.40
2019-03-13T16:38:37.766Z,95.50
2019-03-13T16:41:10.218Z,95.60
2019-03-13T16:43:42.566Z,95.90
2019-03-13T16:46:14.932Z,95.80
2019-03-13T16:48:47.305Z,95.80
2019-03-13T16:51:19.981Z,96.10
2019-03-13T16:53:52.338Z,96.30
2019-03-13T16:56:25.046Z,96.30
2019-03-13T16:58:57.403Z,96.20
2019-03-13T17:01:29.929Z,96.60
2019-03-13T17:04:02.179Z,96.30
2019-03-13T17:06:34.575Z,96.40
2019-03-13T17:09:07.136Z,96.80
2019-03-13T17:11:39.785Z,96.80
2019-03-13T17:14:12.369Z,96.80
2019-03-13T17:16:44.821Z,97.00
2019-03-13T17:19:17.030Z,96.90
2019-03-13T17:21:49.521Z,97.10
2019-03-13T17:24:21.748Z,97.40
2019-03-13T17:26:53.990Z,97.20
2019-03-13T17:29:26.210Z,97.10
2019-03-13T17:31:58.634Z,97.10
2019-03-13T17:34:31.511Z,97.20
2019-03-13T17:37:04.090Z,97.00
2019-03-13T17:39:36.472Z,97.30
2019-03-13T17:42:09.185Z,97.30
2019-03-13T17:44:41.516Z,97.10
2019-03-13T17:47:13.881Z,97.20
2019-03-13T17:49:46.198Z,97.40
2019-03-13T17:52:18.649Z,97.40
2019-03-13T17:54:51.050Z,97.60
2019-03-13T17:57:23.925Z,97.70
2019-03-13T17:59:56.420Z,98.10
2019-03-13T18:02:29.038Z,98.00
2019-03-13T18:05:01.424Z,98.10
2019-03-13T18:07:33.621Z,98.30
2019-03-13T18:10:08.018Z,98.50
2019-03-13T18:12:40.433Z,98.60
2019-03-13T18:15:13.039Z,98.80
2019-03-13T18:17:45.400Z,99.10
2019-03-13T18:20:18.051Z,99.30
2019-03-13T18:22:50.524Z,99.80
2019-03-13T18:25:22.834Z,99.90
2019-03-13T18:27:55.572Z,99.90
2019-03-13T18:30:27.918Z,99.90
2019-03-13T18:33:00.273Z,99.90
2019-03-13T18:35:32.686Z,99.90
2019-03-13T18:38:05.401Z,99.90
2019-03-13T18:40:37.912Z,99.90
2019-03-13T18:43:10.302Z,99.90
2019-03-13T18:45:42.541Z,99.90
2019-03-13T18:48:14.912Z,99.90
2019-03-13T18:50:47.225Z,99.90
2019-03-13T18:53:19.534Z,99.90
2019-03-13T18:55:51.800Z,99.90
2019-03-13T19:00:58.235Z,99.90
2019-03-13T19:03:30.673Z,99.90
2019-03-13T19:06:02.953Z,99.90
2019-03-13T19:08:35.286Z,99.90
2019-03-13T19:11:07.491Z,99.90
2019-03-13T19:13:39.613Z,99.90
2019-03-13T19:16:11.810Z,99.90
2019-03-13T19:18:44.016Z,99.90
2019-03-13T19:21:16.333Z,99.90
2019-03-13T19:23:48.456Z,99.90
2019-03-13T19:26:20.828Z,99.90
2019-03-13T19:28:53.493Z,99.90
2019-03-13T19:31:26.029Z,99.90
2019-03-13T19:33:58.137Z,99.90
2019-03-13T19:36:30.669Z,99.90
2019-03-13T19:39:04.133Z,99.90
2019-03-13T19:41:36.341Z,99.90
2019-03-13T19:44:08.703Z,99.90
2019-03-13T19:46:41.035Z,99.90
2019-03-13T19:49:13.353Z,99.90
2019-03-13T19:51:45.472Z,99.90
2019-03-13T19:54:17.690Z,99.90
2019-03-13T19:56:49.913Z,99.90
2019-03-13T19:59:22.408Z,99.90
2019-03-13T20:01:54.619Z,99.90
2019-03-13T20:04:26.816Z,99.90
2019-03-13T20:06:59.330Z,99.90
2019-03-13T20:09:31.794Z,99.90
2019-03-13T20:12:04.120Z,99.90
2019-03-13T20:14:36.313Z,99.90
2019-03-13T20:17:08.524Z,99.90
2019-03-13T20:19:43.147Z,99.90
2019-03-13T20:22:15.503Z,99.90
2019-03-13T20:24:47.889Z,99.90
2019-03-13T20:27:20.215Z,99.90
2019-03-13T20:29:52.693Z,99.90
2019-03-13T20:34:57.422Z,99.90
2019-03-13T20:37:30.057Z,99.90
2019-03-13T20:40:02.470Z,99.90
2019-03-13T20:42:34.683Z,99.90
2019-03-13T20:45:08.547Z,99.90
2019-03-13T20:47:40.852Z,99.90
2019-03-13T20:50:13.348Z,99.90
2019-03-13T20:52:46.097Z,99.90
2019-03-13T20:55:18.464Z,99.90
2019-03-13T20:57:51.114Z,99.90
2019-03-13T21:00:23.625Z,99.90
2019-03-13T21:02:56.040Z,99.90
2019-03-13T21:05:28.258Z,99.90
2019-03-13T21:08:00.489Z,99.90
2019-03-13T21:10:32.675Z,99.90
2019-03-13T21:13:04.893Z,99.90
2019-03-13T21:15:37.105Z,99.90
2019-03-13T21:18:09.475Z,99.90
2019-03-13T21:20:41.645Z,99.90
2019-03-13T21:23:13.893Z,99.90
2019-03-13T21:25:46.259Z,99.90
2019-03-13T21:28:18.349Z,99.90
2019-03-13T21:30:50.563Z,99.90
2019-03-13T21:33:23.109Z,99.90
2019-03-13T21:35:55.256Z,99.90
2019-03-13T21:38:27.769Z,99.90
2019-03-13T21:41:00.666Z,99.90
2019-03-13T21:43:33.156Z,99.90
2019-03-13T21:46:06.923Z,99.90
2019-03-13T21:48:39.182Z,99.90
2019-03-13T21:51:11.323Z,99.90
2019-03-13T21:53:43.627Z,99.90
2019-03-13T21:56:16.126Z,99.90
2019-03-13T21:58:48.480Z,99.90
2019-03-13T22:01:20.990Z,99.90
2019-03-13T22:03:53.068Z,99.90
2019-03-13T22:06:29.130Z,99.90
2019-03-13T22:08:59.785Z,99.90
2019-03-13T22:11:31.994Z,99.90
2019-03-13T22:14:04.606Z,99.90
2019-03-13T22:16:36.942Z,99.90
2019-03-13T22:19:09.149Z,99.90
2019-03-13T22:21:43.657Z,99.90
2019-03-13T22:24:16.149Z,99.90
2019-03-13T22:26:48.452Z,99.90
2019-03-13T22:29:20.697Z,99.90
2019-03-13T22:31:53.150Z,99.90
2019-03-13T22:34:25.406Z,99.90
2019-03-13T22:36:57.674Z,99.90
2019-03-13T22:39:29.750Z,99.90
2019-03-13T22:42:02.295Z,99.90
2019-03-13T22:44:34.918Z,99.90
2019-03-13T22:47:07.143Z,99.90
2019-03-13T22:49:39.394Z,99.90
2019-03-13T22:52:11.580Z,99.90
2019-03-13T22:54:43.855Z,99.90
2019-03-13T22:57:16.153Z,99.90
2019-03-13T22:59:48.484Z,99.90
2019-03-13T23:02:20.813Z,99.90
2019-03-13T23:04:53.148Z,99.90
2019-03-13T23:07:25.430Z,99.90
2019-03-13T23:09:57.969Z,99.90
2019-03-13T23:12:30.453Z,99.90
2019-03-13T23:15:05.375Z,99.90
2019-03-13T23:17:36.642Z,99.90
2019-03-13T23:20:08.961Z,99.90
2019-03-13T23:22:41.053Z,99.90
2019-03-13T23:25:13.365Z,99.90
2019-03-13T23:27:45.939Z,99.90
2019-03-13T23:30:18.299Z,99.90
2019-03-13T23:32:50.493Z,99.90
2019-03-13T23:35:23.069Z,99.90
2019-03-13T23:37:55.286Z,99.90
2019-03-13T23:40:27.633Z,99.90
2019-03-13T23:43:00.313Z,99.90
2019-03-13T23:45:32.524Z,99.90
2019-03-13T23:48:05.086Z,99.90
2019-03-13T23:50:37.196Z,99.90
2019-03-13T23:53:09.633Z,99.90
2019-03-13T23:55:41.841Z,99.90
2019-03-13T23:58:14.044Z,99.90
